Time;durP1;ratioP1;P1;durP2;ratioP2;P2;SDS_P1;SDS_P2;PMS_P1;PMS_P2;Temp;Humidity;BMP_temperature;BMP_pressure;BME280_temperature;BME280_humidity;BME280_pressure;Samples;Min_cycle;Max_cycle;Signal;HPM_P1;HPM_P2
2021/03/12 00:00:43;;;;;;;13.13;3.22;;;8.60;68.80;;;;;;5005684;28;20446;-79
2021/03/12 00:03:30;;;;;;;10.15;2.42;;;8.50;68.70;;;;;;5005134;28;20426;-80
2021/03/12 00:05:59;;;;;;;11.05;2.22;;;8.50;68.70;;;;;;5002674;28;20096;-80
2021/03/12 00:08:36;;;;;;;7.35;3.08;;;8.50;68.60;;;;;;5021873;28;20034;-79
2021/03/12 00:11:03;;;;;;;8.98;3.40;;;8.60;68.80;;;;;;5005664;28;20156;-80
2021/03/12 00:13:29;;;;;;;12.05;3.75;;;8.50;68.60;;;;;;5004881;28;20056;-80
2021/03/12 00:15:56;;;;;;;8.82;2.92;;;8.50;68.60;;;;;;5021441;28;20040;-78
2021/03/12 00:18:39;;;;;;;9.65;3.03;;;8.50;68.60;;;;;;5001851;28;20378;-78
2021/03/12 00:21:07;;;;;;;10.50;3.00;;;8.50;68.70;;;;;;5005594;28;20202;-80
2021/03/12 00:23:34;;;;;;;9.48;2.97;;;8.50;68.70;;;;;;5005082;28;20038;-80
2021/03/12 00:26:01;;;;;;;8.73;3.45;;;8.50;68.60;;;;;;5005087;28;20030;-80
2021/03/12 00:28:27;;;;;;;8.10;3.08;;;8.50;68.70;;;;;;5006538;28;20034;-79
2021/03/12 00:30:53;;;;;;;13.13;3.53;;;8.50;68.70;;;;;;5004929;28;20045;-80
2021/03/12 00:33:21;;;;;;;10.52;2.85;;;8.50;68.70;;;;;;5004898;28;20236;-79
2021/03/12 00:35:48;;;;;;;8.25;2.80;;;8.50;68.70;;;;;;5020314;28;20030;-79
2021/03/12 00:38:15;;;;;;;8.10;2.90;;;8.50;68.70;;;;;;5005119;28;20466;-80
2021/03/12 00:40:51;;;;;;;11.48;3.30;;;8.50;68.70;;;;;;5004942;28;20064;-80
2021/03/12 00:43:18;;;;;;;6.15;2.90;;;8.50;68.70;;;;;;5004839;28;20033;-80
2021/03/12 00:45:53;;;;;;;9.18;3.67;;;8.40;68.50;;;;;;4988519;28;20422;-79
2021/03/12 00:48:21;;;;;;;20.38;3.88;;;8.50;68.70;;;;;;5004649;28;20327;-80
2021/03/12 00:50:48;;;;;;;12.00;2.90;;;8.40;68.50;;;;;;4998859;28;20092;-79
2021/03/12 00:53:21;;;;;;;15.25;3.40;;;8.40;68.60;;;;;;4973730;28;20076;-80
2021/03/12 00:55:47;;;;;;;7.50;3.08;;;8.40;68.60;;;;;;5004477;28;20057;-80
2021/03/12 00:58:18;;;;;;;9.02;3.28;;;8.40;68.70;;;;;;5004430;28;20659;-80
2021/03/12 01:00:48;;;;;;;11.57;3.42;;;8.40;68.70;;;;;;5020733;28;20148;-80
2021/03/12 01:03:14;;;;;;;9.27;3.45;;;8.40;68.70;;;;;;5004395;28;20395;-80
2021/03/12 01:05:45;;;;;;;13.90;3.35;;;8.40;68.70;;;;;;5020002;28;20026;-80
2021/03/12 01:08:18;;;;;;;8.23;2.92;;;8.40;68.70;;;;;;5004225;28;20055;-81
2021/03/12 01:10:44;;;;;;;12.25;3.65;;;8.40;68.70;;;;;;5003626;28;20061;-80
2021/03/12 01:13:11;;;;;;;8.77;3.75;;;8.40;68.70;;;;;;5004287;28;20129;-80
2021/03/12 01:15:37;;;;;;;6.88;2.92;;;8.30;68.50;;;;;;5004001;28;20040;-80
2021/03/12 01:18:19;;;;;;;8.73;2.92;;;8.40;68.70;;;;;;4997146;28;20022;-80
2021/03/12 01:20:47;;;;;;;11.25;3.63;;;8.40;68.70;;;;;;4998906;28;20427;-80
2021/03/12 01:23:17;;;;;;;10.75;3.22;;;8.30;68.50;;;;;;5005129;28;20025;-80
2021/03/12 01:25:45;;;;;;;6.32;2.22;;;8.30;68.50;;;;;;5005594;28;20038;-80
2021/03/12 01:28:14;;;;;;;14.50;3.47;;;8.30;68.50;;;;;;5020238;28;20029;-80
2021/03/12 01:30:43;;;;;;;11.63;3.17;;;8.30;68.60;;;;;;5004423;28;20030;-80
2021/03/12 01:33:36;;;;;;;8.35;3.13;;;8.30;68.70;;;;;;5014720;28;20073;-80
2021/03/12 01:36:03;;;;;;;9.60;2.95;;;8.30;68.70;;;;;;5003881;28;20057;-80
2021/03/12 01:38:41;;;;;;;9.80;2.83;;;8.30;68.70;;;;;;5004190;28;20044;-80
2021/03/12 01:41:07;;;;;;;8.50;2.85;;;8.30;69.20;;;;;;5003883;28;20065;-80
2021/03/12 01:43:37;;;;;;;9.48;3.83;;;8.30;68.70;;;;;;5004083;28;20099;-81
2021/03/12 01:46:04;;;;;;;7.57;3.08;;;8.30;68.70;;;;;;5019614;28;20030;-80
2021/03/12 01:48:30;;;;;;;7.68;3.53;;;8.30;68.70;;;;;;4987337;28;20104;-80
2021/03/12 01:50:59;;;;;;;8.77;2.42;;;8.30;68.70;;;;;;5003603;28;20041;-79
2021/03/12 01:53:26;;;;;;;9.18;2.38;;;8.30;68.70;;;;;;5003440;28;20041;-80
2021/03/12 01:55:54;;;;;;;9.57;3.53;;;8.30;68.70;;;;;;5003913;28;20353;-79
2021/03/12 01:58:21;;;;;;;11.95;2.60;;;8.30;68.70;;;;;;5002623;28;20481;-80
2021/03/12 02:00:53;;;;;;;9.25;3.10;;;8.30;68.70;;;;;;5003304;28;20042;-80
2021/03/12 02:03:34;;;;;;;7.10;2.72;;;8.30;68.70;;;;;;5003511;28;20117;-80
2021/03/12 02:06:07;;;;;;;12.27;4.15;;;8.30;68.70;;;;;;4987682;28;20030;-80
2021/03/12 02:08:34;;;;;;;10.43;3.22;;;8.30;68.70;;;;;;5004104;28;20069;-80
2021/03/12 02:11:13;;;;;;;9.48;3.38;;;8.30;68.70;;;;;;5003878;28;20041;-80
2021/03/12 02:13:55;;;;;;;8.85;3.17;;;8.30;68.70;;;;;;5003714;28;20030;-81
2021/03/12 02:17:05;;;;;;;11.00;3.55;;;8.20;68.50;;;;;;5003652;28;20121;-80
2021/03/12 02:19:52;;;;;;;7.60;2.28;;;8.20;68.50;;;;;;4999331;28;20195;-81
2021/03/12 02:22:21;;;;;;;8.65;2.53;;;8.20;68.50;;;;;;4985668;28;20450;-80
2021/03/12 02:25:13;;;;;;;9.38;2.53;;;8.20;68.50;;;;;;5004238;28;20062;-80
2021/03/12 02:27:56;;;;;;;13.27;4.13;;;8.10;68.40;;;;;;5020058;28;20027;-79
2021/03/12 02:30:22;;;;;;;10.38;3.40;;;8.10;68.30;;;;;;5022481;28;20042;-79
2021/03/12 02:32:51;;;;;;;9.48;3.33;;;8.10;68.40;;;;;;4977035;28;20038;-80
2021/03/12 02:35:27;;;;;;;6.68;2.42;;;8.10;68.50;;;;;;5008113;28;20397;-80
2021/03/12 02:38:25;;;;;;;9.88;2.67;;;8.10;68.50;;;;;;5008252;28;20032;-80
2021/03/12 02:40:54;;;;;;;;;;;8.10;68.50;;;;;;5008785;28;20062;-80
2021/03/12 02:43:21;;;;;;;12.25;3.08;;;8.10;68.50;;;;;;5008586;28;19909;-80
2021/03/12 02:45:49;;;;;;;9.30;2.80;;;8.10;68.30;;;;;;5006901;28;20473;-80
2021/03/12 02:48:22;;;;;;;8.90;3.10;;;8.10;68.40;;;;;;4991968;28;20042;-80
2021/03/12 02:50:49;;;;;;;4.22;2.13;;;8.10;68.50;;;;;;4982129;28;20104;-79
2021/03/12 02:53:21;;;;;;;4.85;2.60;;;8.10;68.50;;;;;;4991852;28;20027;-80
2021/03/12 02:55:55;;;;;;;4.75;2.42;;;8.10;68.50;;;;;;5015915;28;20125;-80
2021/03/12 02:58:23;;;;;;;9.20;3.08;;;8.00;68.50;;;;;;5011190;28;20148;-79
2021/03/12 03:00:54;;;;;;;9.85;3.58;;;8.00;68.50;;;;;;5027752;28;20041;-79
2021/03/12 03:03:40;;;;;;;5.47;2.10;;;8.00;68.50;;;;;;5007416;28;20038;-78
2021/03/12 03:06:40;;;;;;;6.10;2.38;;;8.00;68.50;;;;;;5010314;28;20034;-79
2021/03/12 03:09:06;;;;;;;12.18;3.28;;;8.00;68.50;;;;;;5012164;28;20434;-81
2021/03/12 03:11:36;;;;;;;7.88;2.80;;;8.00;68.50;;;;;;5027186;28;20428;-81
2021/03/12 03:14:04;;;;;;;8.15;2.35;;;8.00;68.60;;;;;;5026996;28;20026;-78
2021/03/12 03:16:36;;;;;;;10.15;2.17;;;8.00;68.60;;;;;;4994731;28;20030;-79
2021/03/12 03:19:07;;;;;;;7.10;2.88;;;8.00;68.60;;;;;;4989463;28;20092;-79
2021/03/12 03:21:34;;;;;;;8.23;3.05;;;8.00;68.60;;;;;;5010663;28;20037;-79
2021/03/12 03:24:00;;;;;;;9.70;2.60;;;8.00;68.60;;;;;;5010554;28;20140;-79
2021/03/12 03:26:27;;;;;;;8.45;2.42;;;8.00;68.60;;;;;;5010629;28;20038;-79
2021/03/12 03:28:56;;;;;;;7.15;2.60;;;8.00;68.70;;;;;;5027062;28;20026;-80
2021/03/12 03:31:24;;;;;;;7.47;2.05;;;8.00;68.60;;;;;;5010188;28;20370;-79
2021/03/12 03:33:50;;;;;;;8.70;3.25;;;8.00;68.60;;;;;;5010349;28;20033;-79
2021/03/12 03:36:16;;;;;;;5.40;2.80;;;8.00;68.60;;;;;;5009442;28;20496;-80
2021/03/12 03:38:43;;;;;;;4.15;2.00;;;8.00;68.70;;;;;;5012040;28;20053;-80
2021/03/12 03:41:13;;;;;;;5.32;2.30;;;8.00;68.70;;;;;;5010365;28;20366;-80
2021/03/12 03:43:42;;;;;;;4.88;2.30;;;7.90;68.50;;;;;;5010870;28;20128;-80
2021/03/12 03:46:14;;;;;;;6.35;2.63;;;8.00;68.70;;;;;;5010117;28;20504;-80
2021/03/12 03:48:43;;;;;;;4.35;2.45;;;8.00;68.70;;;;;;5010959;28;20477;-80
2021/03/12 03:51:15;;;;;;;12.63;3.22;;;7.90;68.50;;;;;;5009343;28;20034;-80
2021/03/12 03:53:45;;;;;;;6.43;2.33;;;7.90;68.50;;;;;;5010078;28;20022;-80
2021/03/12 03:56:15;;;;;;;6.93;2.75;;;7.90;68.60;;;;;;4993487;28;20034;-80
2021/03/12 03:58:44;;;;;;;5.47;2.70;;;7.90;68.60;;;;;;5009939;28;20030;-80
2021/03/12 04:01:13;;;;;;;8.15;2.55;;;7.90;68.60;;;;;;5010124;28;20057;-80
2021/03/12 04:03:43;;;;;;;3.90;1.60;;;7.90;68.60;;;;;;5010023;28;20026;-79
2021/03/12 04:06:11;;;;;;;6.22;2.60;;;7.90;68.60;;;;;;4997976;28;20038;-78
2021/03/12 04:08:39;;;;;;;5.45;2.30;;;7.90;68.60;;;;;;5022135;28;20037;-79
2021/03/12 04:11:06;;;;;;;4.70;2.30;;;7.90;68.60;;;;;;5006001;28;20508;-79
2021/03/12 04:13:37;;;;;;;5.50;2.40;;;8.00;68.80;;;;;;5006515;28;20355;-79
2021/03/12 04:16:04;;;;;;;3.85;2.17;;;7.90;68.70;;;;;;5022682;28;20549;-78
2021/03/12 04:18:31;;;;;;;9.43;3.13;;;7.90;68.70;;;;;;5009325;28;20021;-79
2021/03/12 04:20:59;;;;;;;5.15;2.08;;;7.90;68.60;;;;;;5009346;28;20481;-79
2021/03/12 04:23:27;;;;;;;5.93;1.98;;;7.90;68.70;;;;;;4993292;28;20588;-79
2021/03/12 04:25:54;;;;;;;3.97;1.80;;;7.90;68.70;;;;;;4992990;28;20378;-78
2021/03/12 04:28:21;;;;;;;6.75;2.70;;;7.90;68.70;;;;;;5008418;28;20029;-79
2021/03/12 04:30:48;;;;;;;6.70;2.08;;;7.90;68.70;;;;;;5009522;28;20026;-78
2021/03/12 04:33:16;;;;;;;3.35;1.80;;;7.90;68.70;;;;;;5009321;28;20042;-79
2021/03/12 04:35:49;;;;;;;4.45;2.38;;;7.90;68.70;;;;;;5008988;28;20500;-78
2021/03/12 04:38:18;;;;;;;5.05;2.22;;;7.90;68.70;;;;;;5009184;28;20556;-79
2021/03/12 04:40:44;;;;;;;3.17;1.73;;;7.90;68.70;;;;;;4976751;28;20489;-79
2021/03/12 04:43:11;;;;;;;7.43;2.22;;;7.90;68.70;;;;;;5008877;28;20105;-79
2021/03/12 04:45:39;;;;;;;5.50;1.98;;;7.90;68.70;;;;;;5008048;28;20144;-78
2021/03/12 04:48:06;;;;;;;6.32;2.00;;;7.90;68.70;;;;;;5008955;28;20525;-80
2021/03/12 04:50:33;;;;;;;2.80;1.77;;;7.90;68.70;;;;;;5008127;28;20129;-79
2021/03/12 04:53:04;;;;;;;6.43;2.20;;;7.90;68.80;;;;;;5007101;28;20477;-80
2021/03/12 04:55:31;;;;;;;4.97;2.47;;;7.90;68.80;;;;;;4990874;28;20072;-80
2021/03/12 04:57:59;;;;;;;2.22;1.52;;;7.80;68.60;;;;;;5008392;28;20045;-80
2021/03/12 05:00:25;;;;;;;5.25;2.20;;;7.80;68.60;;;;;;5006479;28;20394;-79
2021/03/12 05:03:13;;;;;;;3.42;1.75;;;7.80;68.60;;;;;;5020834;28;20034;-79
2021/03/12 05:05:42;;;;;;;6.35;2.22;;;7.80;68.60;;;;;;5006695;28;20037;-78
2021/03/12 05:08:11;;;;;;;5.63;2.00;;;7.80;68.60;;;;;;5006527;28;20381;-79
2021/03/12 05:11:13;;;;;;;4.45;2.17;;;7.80;68.70;;;;;;5008446;28;20033;-78
2021/03/12 05:13:52;;;;;;;3.50;1.98;;;7.80;68.70;;;;;;5008712;28;20029;-79
2021/03/12 05:16:23;;;;;;;7.05;1.63;;;7.80;68.70;;;;;;5008277;28;20116;-79
2021/03/12 05:18:50;;;;;;;4.78;1.80;;;7.80;68.70;;;;;;5007841;28;20014;-80
2021/03/12 05:21:17;;;;;;;3.95;2.05;;;7.80;68.70;;;;;;5008337;28;20026;-80
2021/03/12 05:23:44;;;;;;;3.65;1.88;;;7.80;68.70;;;;;;5008454;28;20118;-79
2021/03/12 05:26:10;;;;;;;3.25;2.03;;;7.70;69.10;;;;;;5008484;28;20037;-79
2021/03/12 05:28:37;;;;;;;4.28;1.50;;;7.70;69.10;;;;;;5008075;28;20083;-78
2021/03/12 05:31:03;;;;;;;3.70;2.25;;;7.70;68.60;;;;;;5009648;28;20045;-80
2021/03/12 05:33:30;;;;;;;6.30;1.90;;;7.70;68.60;;;;;;5007862;28;20180;-80
2021/03/12 05:35:58;;;;;;;3.33;1.50;;;7.70;68.60;;;;;;5008308;28;20038;-79
2021/03/12 05:38:25;;;;;;;2.88;1.67;;;7.70;68.60;;;;;;5023790;28;20125;-78
2021/03/12 05:40:52;;;;;;;4.15;1.73;;;7.70;68.70;;;;;;4991993;28;20473;-78
2021/03/12 05:43:19;;;;;;;6.20;2.17;;;7.70;68.70;;;;;;5007703;28;20378;-79
2021/03/12 05:45:45;;;;;;;3.42;1.85;;;7.70;68.70;;;;;;5009237;28;20478;-78
2021/03/12 05:48:14;;;;;;;3.35;2.05;;;7.70;68.70;;;;;;4979695;28;20181;-77
2021/03/12 05:50:41;;;;;;;5.47;1.88;;;7.70;68.70;;;;;;4969304;28;20042;-79
2021/03/12 05:53:11;;;;;;;5.03;2.08;;;7.80;68.90;;;;;;4970033;28;20398;-79
2021/03/12 05:55:40;;;;;;;5.50;2.10;;;7.70;68.70;;;;;;4985427;28;20065;-78
2021/03/12 05:58:07;;;;;;;3.72;1.80;;;7.70;68.70;;;;;;4974227;28;20069;-79
2021/03/12 06:00:34;;;;;;;5.07;2.03;;;7.70;68.70;;;;;;4972985;28;20022;-78
2021/03/12 06:03:01;;;;;;;3.42;1.60;;;7.70;68.70;;;;;;4990310;28;20097;-79
2021/03/12 06:05:39;;;;;;;3.13;1.70;;;7.70;68.70;;;;;;4987371;28;20034;-79
2021/03/12 06:08:05;;;;;;;4.10;1.83;;;7.70;68.70;;;;;;4994995;28;20067;-80
2021/03/12 06:10:33;;;;;;;3.28;1.70;;;7.70;68.70;;;;;;5008546;28;20034;-80
2021/03/12 06:13:04;;;;;;;3.03;1.48;;;7.70;68.70;;;;;;4992044;28;20423;-79
2021/03/12 06:15:38;;;;;;;2.35;1.73;;;7.70;68.70;;;;;;4991105;28;20105;-79
2021/03/12 06:18:16;;;;;;;3.88;1.63;;;7.70;68.80;;;;;;5008100;28;20042;-85
2021/03/12 06:20:47;;;;;;;3.72;1.73;;;7.70;68.80;;;;;;4993755;28;20034;-85
2021/03/12 06:23:35;;;;;;;6.97;2.22;;;7.70;68.70;;;;;;4993533;28;20026;-88
2021/03/12 06:26:07;;;;;;;3.25;1.50;;;7.70;68.80;;;;;;4994734;28;20110;-83
2021/03/12 06:29:10;;;;;;;3.00;1.48;;;7.70;68.80;;;;;;5009742;28;20033;-85
2021/03/12 06:32:01;;;;;;;6.43;2.08;;;7.70;68.80;;;;;;5009557;28;20076;-84
2021/03/12 06:35:00;;;;;;;4.18;1.95;;;7.80;68.90;;;;;;5007570;28;20069;-92
2021/03/12 06:38:09;;;;;;;4.65;1.90;;;7.70;68.70;;;;;;5003372;28;20029;-87
2021/03/12 06:40:45;;;;;;;7.97;2.20;;;7.70;68.60;;;;;;5007033;28;20057;-86
2021/03/12 06:43:19;;;;;;;;;;;7.70;68.70;;;;;;4990868;28;20080;-89
2021/03/12 06:45:48;;;;;;;4.90;2.22;;;7.70;68.70;;;;;;5008383;28;20092;-80
2021/03/12 06:48:25;;;;;;;4.22;2.00;;;7.60;68.50;;;;;;4991575;28;20033;-83
2021/03/12 06:51:06;;;;;;;6.65;2.22;;;7.60;68.60;;;;;;5024140;28;20040;-90
2021/03/12 06:53:35;;;;;;;7.07;2.22;;;7.70;69.10;;;;;;5000418;28;20030;-91
2021/03/12 06:56:05;;;;;;;7.30;2.75;;;7.70;69.30;;;;;;5009346;28;20052;-93
2021/03/12 06:59:00;;;;;;;5.88;2.65;;;7.70;69.50;;;;;;4993170;28;20037;-82
2021/03/12 07:01:31;;;;;;;8.55;2.40;;;7.80;69.90;;;;;;5009013;28;20117;-86
2021/03/12 07:04:15;;;;;;;3.80;1.90;;;7.90;70.00;;;;;;5009415;28;20034;-87
2021/03/12 07:07:14;;;;;;;9.07;2.65;;;7.90;70.10;;;;;;4997311;28;20271;-87
2021/03/12 07:09:57;;;;;;;6.82;1.88;;;7.90;69.90;;;;;;5006490;28;20029;-87
2021/03/12 07:12:52;;;;;;;3.28;1.85;;;7.90;70.00;;;;;;5003475;28;20071;-85
2021/03/12 07:15:24;;;;;;;5.53;1.80;;;7.90;70.00;;;;;;4989350;28;20128;-84
2021/03/12 07:18:08;;;;;;;5.75;2.35;;;7.90;69.90;;;;;;4994455;28;20489;-88
2021/03/12 07:20:38;;;;;;;6.13;1.92;;;8.00;70.20;;;;;;5007774;28;20040;-81
2021/03/12 07:23:09;;;;;;;7.22;2.33;;;7.90;70.00;;;;;;5007836;28;20030;-82
2021/03/12 07:25:44;;;;;;;5.25;1.92;;;7.90;70.10;;;;;;5007166;28;20481;-78
2021/03/12 07:28:13;;;;;;;3.45;2.28;;;8.00;70.30;;;;;;5004278;28;20061;-78
2021/03/12 07:30:55;;;;;;;11.07;2.60;;;8.00;70.30;;;;;;5006618;28;20633;-80
2021/03/12 07:33:26;;;;;;;6.53;2.30;;;8.10;70.50;;;;;;5004806;28;20132;-79
2021/03/12 07:35:59;;;;;;;4.63;2.50;;;8.10;70.40;;;;;;5005496;28;20026;-80
2021/03/12 07:38:41;;;;;;;5.00;1.88;;;8.10;70.40;;;;;;5004320;28;20026;-80
2021/03/12 07:41:14;;;;;;;5.38;2.15;;;8.20;70.60;;;;;;5005834;28;20030;-85
2021/03/12 07:43:57;;;;;;;5.75;1.60;;;8.20;70.50;;;;;;5002474;28;20474;-84
2021/03/12 07:46:38;;;;;;;3.97;1.65;;;8.20;70.50;;;;;;5006157;28;20057;-85
2021/03/12 07:49:27;;;;;;;4.93;2.15;;;8.30;70.60;;;;;;4987516;28;20058;-82
2021/03/12 07:51:55;;;;;;;5.47;1.90;;;8.20;70.50;;;;;;4987829;28;20592;-89
2021/03/12 07:54:43;;;;;;;7.28;2.42;;;8.30;70.50;;;;;;4992326;28;20076;-88
2021/03/12 07:57:43;;;;;;;5.22;2.13;;;8.30;70.60;;;;;;4998057;28;20092;-88
2021/03/12 08:00:29;;;;;;;10.98;2.67;;;8.40;70.70;;;;;;4994200;28;20026;-81
2021/03/12 08:03:40;;;;;;;7.88;1.92;;;8.40;70.60;;;;;;5007620;28;20033;-80
2021/03/12 08:06:17;;;;;;;10.55;2.38;;;8.40;70.60;;;;;;5006589;28;20038;-80
2021/03/12 08:09:32;;;;;;;2.80;1.45;;;8.50;70.60;;;;;;4993577;28;20030;-83
2021/03/12 08:12:38;;;;;;;3.83;1.63;;;8.50;70.60;;;;;;5009383;28;20060;-86
2021/03/12 08:15:31;;;;;;;4.28;1.98;;;8.60;70.80;;;;;;4973468;28;20154;-89
2021/03/12 08:18:33;;;;;;;8.70;2.33;;;8.70;70.90;;;;;;4991194;28;20041;-87
2021/03/12 08:21:38;;;;;;;4.68;1.95;;;8.80;70.80;;;;;;5020199;28;20033;-86
2021/03/12 08:24:50;;;;;;;5.63;2.22;;;8.90;71.00;;;;;;5007067;28;20022;-83
2021/03/12 08:27:41;;;;;;;6.88;2.00;;;8.90;70.90;;;;;;5003921;28;20046;-82
2021/03/12 08:30:27;;;;;;;5.45;1.90;;;9.00;70.80;;;;;;5006163;28;20042;-82
2021/03/12 08:33:08;;;;;;;5.35;2.25;;;9.00;70.80;;;;;;4998312;28;20034;-83
2021/03/12 08:35:50;;;;;;;5.40;2.22;;;9.00;70.70;;;;;;4987123;28;20338;-79
2021/03/12 08:38:37;;;;;;;9.02;2.28;;;9.00;70.70;;;;;;4993933;28;20042;-79
2021/03/12 08:41:20;;;;;;;5.30;1.83;;;9.00;70.80;;;;;;5006963;28;20029;-79
2021/03/12 08:44:12;;;;;;;5.97;1.92;;;9.00;70.80;;;;;;5004902;28;20080;-80
2021/03/12 08:47:18;;;;;;;4.40;2.53;;;9.00;70.80;;;;;;4998097;28;20065;-80
2021/03/12 08:49:48;;;;;;;12.30;3.08;;;9.10;71.00;;;;;;5004237;28;20083;-80
2021/03/12 08:52:18;;;;;;;6.38;2.67;;;9.10;71.00;;;;;;4989250;28;20070;-80
2021/03/12 08:54:51;;;;;;;3.15;1.85;;;9.20;71.20;;;;;;5005255;28;20037;-83
2021/03/12 08:57:20;;;;;;;6.72;2.55;;;9.30;71.30;;;;;;4990672;28;20041;-85
2021/03/12 09:00:06;;;;;;;7.88;2.88;;;9.30;71.20;;;;;;4988531;28;20038;-86
2021/03/12 09:02:50;;;;;;;6.10;2.90;;;9.40;71.30;;;;;;4994849;28;20038;-84
2021/03/12 09:05:30;;;;;;;8.40;3.03;;;9.40;71.10;;;;;;5006504;28;20465;-88
2021/03/12 09:08:29;;;;;;;8.68;2.38;;;9.40;71.00;;;;;;5006731;28;20088;-84
2021/03/12 09:11:34;;;;;;;6.63;1.95;;;9.40;71.00;;;;;;4996255;28;20077;-83
2021/03/12 09:14:06;;;;;;;8.30;2.40;;;9.50;71.20;;;;;;5004741;28;20136;-81
2021/03/12 09:16:37;;;;;;;4.63;1.90;;;9.50;71.20;;;;;;5022402;28;20164;-84
2021/03/12 09:19:10;;;;;;;8.70;2.65;;;9.50;71.30;;;;;;5005173;28;20049;-85
2021/03/12 09:21:45;;;;;;;7.93;2.92;;;9.60;71.40;;;;;;5005328;28;20539;-85
2021/03/12 09:24:12;;;;;;;7.85;2.65;;;9.70;71.50;;;;;;5005595;28;20026;-84
2021/03/12 09:26:43;;;;;;;6.85;2.72;;;9.80;71.70;;;;;;5004928;28;20030;-84
2021/03/12 09:29:17;;;;;;;8.00;2.47;;;10.00;72.00;;;;;;5020892;28;20452;-83
2021/03/12 09:31:44;;;;;;;7.38;2.85;;;10.10;72.20;;;;;;5004864;28;20421;-85
2021/03/12 09:34:30;;;;;;;12.07;2.63;;;10.20;72.20;;;;;;5019090;28;20120;-82
2021/03/12 09:37:08;;;;;;;11.55;2.78;;;10.30;72.20;;;;;;5004865;28;20042;-82
2021/03/12 09:39:50;;;;;;;9.85;2.90;;;10.40;72.20;;;;;;5004729;28;20245;-83
2021/03/12 09:42:29;;;;;;;11.73;3.60;;;10.40;72.10;;;;;;5005054;28;20419;-83
2021/03/12 09:45:18;;;;;;;7.05;2.88;;;10.40;72.00;;;;;;4990410;28;20049;-83
2021/03/12 09:47:49;;;;;;;11.00;3.35;;;10.50;72.10;;;;;;5004738;28;20073;-88
2021/03/12 09:50:19;;;;;;;10.27;3.77;;;10.40;72.00;;;;;;4989332;28;20037;-83
2021/03/12 09:52:58;;;;;;;14.57;2.70;;;10.40;72.00;;;;;;4997622;28;20046;-84
2021/03/12 09:55:42;;;;;;;13.15;3.45;;;10.50;72.10;;;;;;4985560;28;20084;-82
2021/03/12 09:58:13;;;;;;;7.00;3.22;;;10.50;72.10;;;;;;4990517;28;20030;-90
2021/03/12 10:01:09;;;;;;;13.98;4.03;;;10.50;72.10;;;;;;4990491;28;20030;-88
2021/03/12 10:03:36;;;;;;;7.57;2.95;;;10.50;72.30;;;;;;4988620;28;20326;-83
2021/03/12 10:06:12;;;;;;;8.05;2.53;;;10.50;72.10;;;;;;5020716;28;20030;-82
2021/03/12 10:09:04;;;;;;;8.52;3.00;;;10.60;72.20;;;;;;4989689;28;20033;-82
2021/03/12 10:11:49;;;;;;;13.93;3.50;;;10.60;72.20;;;;;;4989314;28;20519;-79
2021/03/12 10:14:36;;;;;;;7.82;2.88;;;10.60;72.10;;;;;;4999625;28;20030;-77
2021/03/12 10:17:13;;;;;;;11.27;3.67;;;10.70;72.20;;;;;;4984520;28;20030;-79
2021/03/12 10:19:59;;;;;;;9.45;2.40;;;10.80;72.30;;;;;;4984124;28;20034;-79
2021/03/12 10:22:31;;;;;;;9.95;3.35;;;10.90;72.30;;;;;;5003740;28;20022;-83
2021/03/12 10:25:11;;;;;;;9.98;2.58;;;10.90;72.10;;;;;;5003970;28;20030;-80
2021/03/12 10:27:42;;;;;;;9.50;2.90;;;11.00;72.10;;;;;;5003920;28;20021;-80
2021/03/12 10:30:13;;;;;;;8.38;3.15;;;11.10;72.20;;;;;;5021280;28;20030;-79
2021/03/12 10:32:44;;;;;;;8.48;3.00;;;11.10;72.00;;;;;;5005480;28;20041;-84
2021/03/12 10:35:25;;;;;;;11.15;4.30;;;11.10;72.00;;;;;;5005775;28;20037;-81
2021/03/12 10:37:54;;;;;;;12.02;2.72;;;11.20;72.00;;;;;;4988125;28;20041;-82
2021/03/12 10:40:21;;;;;;;10.65;2.67;;;11.20;71.90;;;;;;5004616;28;20025;-82
2021/03/12 10:42:47;;;;;;;8.07;3.40;;;11.30;72.00;;;;;;5005583;28;20175;-81
2021/03/12 10:45:26;;;;;;;9.98;3.70;;;11.40;72.10;;;;;;4991541;28;20026;-82
2021/03/12 10:47:56;;;;;;;8.65;3.55;;;11.50;72.10;;;;;;5006735;28;20054;-81
2021/03/12 10:50:23;;;;;;;11.23;4.25;;;11.60;72.10;;;;;;5023976;28;20152;-82
2021/03/12 10:52:49;;;;;;;8.80;2.63;;;11.70;72.10;;;;;;5007198;28;20041;-81
2021/03/12 10:55:17;;;;;;;10.27;3.17;;;11.80;72.10;;;;;;5007635;28;20029;-81
2021/03/12 10:57:47;;;;;;;8.43;3.17;;;11.90;72.10;;;;;;5006921;28;20030;-85
2021/03/12 11:00:22;;;;;;;8.82;3.13;;;11.90;71.90;;;;;;5007395;28;20444;-83
2021/03/12 11:02:48;;;;;;;12.07;3.85;;;12.00;71.80;;;;;;5007946;28;20065;-82
2021/03/12 11:05:17;;;;;;;7.20;3.13;;;12.10;71.80;;;;;;5023102;28;20033;-83
2021/03/12 11:07:45;;;;;;;7.72;3.10;;;12.20;71.80;;;;;;5023726;28;20045;-83
2021/03/12 11:10:12;;;;;;;13.75;3.85;;;12.30;71.80;;;;;;5007440;28;20168;-81
2021/03/12 11:12:47;;;;;;;11.52;3.67;;;12.30;71.70;;;;;;5007703;28;20133;-85
2021/03/12 11:15:16;;;;;;;9.77;3.15;;;12.50;71.80;;;;;;5008183;28;20041;-82
2021/03/12 11:17:46;;;;;;;8.32;3.00;;;12.50;71.60;;;;;;5008264;28;20033;-82
2021/03/12 11:20:21;;;;;;;11.75;3.50;;;12.70;71.70;;;;;;4989095;28;20040;-84
2021/03/12 11:22:49;;;;;;;13.43;4.20;;;12.70;71.40;;;;;;4993729;28;20190;-85
2021/03/12 11:25:16;;;;;;;13.15;3.30;;;12.80;71.50;;;;;;5024904;28;20034;-84
2021/03/12 11:27:44;;;;;;;11.85;3.58;;;12.90;71.40;;;;;;5009111;28;20034;-84
2021/03/12 11:30:15;;;;;;;15.10;4.70;;;13.00;71.40;;;;;;5008260;28;20034;-84
2021/03/12 11:32:41;;;;;;;11.20;3.80;;;13.10;71.40;;;;;;4991039;28;20045;-82
2021/03/12 11:35:09;;;;;;;10.90;3.80;;;13.20;71.30;;;;;;5006921;28;20417;-82
2021/03/12 11:37:35;;;;;;;11.48;3.92;;;13.20;71.10;;;;;;5007977;28;20046;-83
2021/03/12 11:40:01;;;;;;;9.23;3.40;;;13.30;71.10;;;;;;5006951;28;20219;-82
2021/03/12 11:42:27;;;;;;;12.30;3.83;;;13.30;70.90;;;;;;4974199;28;20034;-83
2021/03/12 11:44:54;;;;;;;12.82;3.65;;;13.30;70.80;;;;;;5009061;28;20034;-85
2021/03/12 11:47:19;;;;;;;13.50;3.95;;;13.30;70.80;;;;;;5008975;28;20489;-83
2021/03/12 11:49:47;;;;;;;9.88;3.90;;;13.30;70.70;;;;;;5016993;28;20034;-82
2021/03/12 11:52:14;;;;;;;13.82;3.90;;;13.40;71.30;;;;;;5012010;28;20488;-85
2021/03/12 11:54:41;;;;;;;13.85;3.97;;;13.40;70.60;;;;;;5023086;28;20029;-83
2021/03/12 11:57:07;;;;;;;14.77;4.57;;;13.40;70.60;;;;;;5006475;28;20038;-81
2021/03/12 11:59:33;;;;;;;9.88;4.55;;;13.40;70.40;;;;;;5005929;28;20106;-85
2021/03/12 12:02:00;;;;;;;12.88;4.47;;;13.50;70.50;;;;;;5009725;28;20037;-85
2021/03/12 12:04:27;;;;;;;14.15;4.70;;;13.50;70.40;;;;;;5007385;28;20030;-85
2021/03/12 12:06:55;;;;;;;15.55;5.05;;;13.60;70.50;;;;;;5006505;28;20353;-84
2021/03/12 12:09:21;;;;;;;11.63;3.85;;;13.70;70.50;;;;;;4990760;28;20125;-84
2021/03/12 12:11:48;;;;;;;18.17;5.20;;;13.80;70.60;;;;;;5005656;28;20392;-85
2021/03/12 12:14:14;;;;;;;11.98;4.75;;;13.90;70.70;;;;;;5012323;28;20033;-86
2021/03/12 12:16:40;;;;;;;12.07;4.68;;;14.00;70.70;;;;;;5005941;28;20040;-81
2021/03/12 12:19:12;;;;;;;10.88;4.45;;;14.10;70.60;;;;;;5005641;28;20030;-84
2021/03/12 12:21:39;;;;;;;14.15;5.30;;;14.30;70.70;;;;;;4988722;28;20041;-83
2021/03/12 12:24:06;;;;;;;15.27;3.90;;;14.40;70.60;;;;;;5006014;28;20030;-84
2021/03/12 12:26:33;;;;;;;14.23;4.97;;;14.50;70.70;;;;;;5006879;28;20030;-85
2021/03/12 12:29:00;;;;;;;9.20;4.30;;;14.60;70.60;;;;;;5015725;28;20326;-88
2021/03/12 12:31:27;;;;;;;13.30;4.50;;;14.70;70.60;;;;;;4990031;28;20044;-82
2021/03/12 12:33:53;;;;;;;13.70;4.57;;;14.70;70.40;;;;;;5005717;28;20337;-84
2021/03/12 12:36:19;;;;;;;15.85;5.75;;;14.80;70.50;;;;;;5005597;28;20030;-78
2021/03/12 12:38:45;;;;;;;21.63;4.63;;;14.90;70.50;;;;;;5007887;28;20032;-79
2021/03/12 12:41:12;;;;;;;12.60;4.40;;;14.90;70.30;;;;;;5006473;28;20043;-83
2021/03/12 12:43:39;;;;;;;12.10;5.28;;;15.00;70.40;;;;;;5003639;28;20064;-82
2021/03/12 12:46:05;;;;;;;13.10;4.93;;;15.10;70.40;;;;;;5005617;28;20117;-81
2021/03/12 12:48:31;;;;;;;12.15;4.20;;;15.20;70.30;;;;;;5006512;28;20040;-88
2021/03/12 12:50:57;;;;;;;9.43;3.80;;;15.20;70.10;;;;;;5005314;28;20465;-78
2021/03/12 12:53:23;;;;;;;13.20;4.50;;;15.30;70.10;;;;;;5004392;28;20080;-82
2021/03/12 12:55:49;;;;;;;14.93;4.75;;;15.30;70.00;;;;;;5005323;28;20026;-82
2021/03/12 12:58:15;;;;;;;18.70;5.43;;;15.30;69.90;;;;;;5005856;28;20555;-81
2021/03/12 13:00:40;;;;;;;17.17;5.13;;;15.20;69.60;;;;;;5021034;28;20048;-78
2021/03/12 13:03:06;;;;;;;16.02;4.43;;;15.20;69.60;;;;;;4987646;28;20068;-78
2021/03/12 13:05:33;;;;;;;15.02;4.88;;;15.20;69.50;;;;;;5003673;28;20029;-79
2021/03/12 13:07:59;;;;;;;15.80;4.88;;;15.10;69.30;;;;;;5004288;28;20034;-78
2021/03/12 13:10:25;;;;;;;16.48;4.65;;;15.10;69.30;;;;;;5007146;28;20034;-83
2021/03/12 13:12:51;;;;;;;16.25;4.82;;;15.10;69.30;;;;;;5005905;28;20084;-82
2021/03/12 13:15:18;;;;;;;14.68;4.65;;;15.10;69.20;;;;;;5005553;28;20363;-78
2021/03/12 13:17:43;;;;;;;13.38;4.43;;;15.10;69.20;;;;;;4988966;28;20129;-79
2021/03/12 13:20:12;;;;;;;14.80;5.82;;;15.10;69.10;;;;;;5004943;28;20117;-82
2021/03/12 13:22:39;;;;;;;17.27;5.38;;;15.20;69.10;;;;;;5004896;28;20033;-79